Time;durP1;ratioP1;P1;durP2;ratioP2;P2;SDS_P1;SDS_P2;PMS_P1;PMS_P2;Temp;Humidity;BMP_temperature;BMP_pressure;BME280_temperature;BME280_humidity;BME280_pressure;Samples;Min_cycle;Max_cycle;Signal;HPM_P1;HPM_P2
2023/04/13 00:00:09;;;;;;;1.45;1.35;;;9.50;1.00;;;;;;5087123;29;20385;-68
2023/04/13 00:02:45;;;;;;;2.05;1.95;;;9.50;1.00;;;;;;5067575;28;20052;-69
2023/04/13 00:05:16;;;;;;;1.17;1.17;;;9.50;1.00;;;;;;5072103;28;20058;-67
2023/04/13 00:07:50;;;;;;;1.67;1.23;;;9.50;1.00;;;;;;5157351;28;20050;-69
2023/04/13 00:10:24;;;;;;;1.45;1.35;;;9.50;1.00;;;;;;5084863;29;20049;-69
2023/04/13 00:12:57;;;;;;;3.78;1.50;;;9.60;1.00;;;;;;5071688;29;20038;-67
2023/04/13 00:15:31;;;;;;;1.15;1.15;;;9.70;1.00;;;;;;5084720;29;20035;-70
2023/04/13 00:18:07;;;;;;;1.67;1.40;;;9.70;1.00;;;;;;5132266;28;20545;-69
2023/04/13 00:20:42;;;;;;;1.02;1.02;;;9.80;1.00;;;;;;5084339;29;20030;-72
2023/04/13 00:23:13;;;;;;;1.27;1.00;;;10.00;99.90;;;;;;5056764;29;20059;-68
2023/04/13 00:25:44;;;;;;;1.13;1.00;;;10.20;99.90;;;;;;5056950;29;20040;-68
2023/04/13 00:28:21;;;;;;;1.15;1.15;;;10.50;84.30;;;;;;5087435;28;20040;-71
2023/04/13 00:30:55;;;;;;;1.08;1.05;;;10.50;99.90;;;;;;5069172;29;20028;-70
2023/04/13 00:33:31;;;;;;;0.73;0.73;;;10.60;99.90;;;;;;5068268;29;20045;-70
2023/04/13 00:36:02;;;;;;;1.15;1.15;;;10.50;29.40;;;;;;5089000;28;20043;-66
2023/04/13 00:38:43;;;;;;;1.40;1.20;;;10.50;53.00;;;;;;5071457;29;20069;-69
2023/04/13 00:41:15;;;;;;;1.85;1.40;;;10.60;95.20;;;;;;5069473;29;20036;-69
2023/04/13 00:43:48;;;;;;;1.13;1.02;;;10.50;99.90;;;;;;5070392;29;20584;-69
2023/04/13 00:46:21;;;;;;;0.88;0.88;;;10.40;99.90;;;;;;5087465;29;20040;-67
2023/04/13 00:48:54;;;;;;;0.73;0.73;;;10.30;99.90;;;;;;5092187;28;20047;-71
2023/04/13 00:51:29;;;;;;;1.10;1.10;;;10.20;99.90;;;;;;5085609;29;20027;-71
2023/04/13 00:54:03;;;;;;;;;;;10.10;99.90;;;;;;5087675;29;20042;-67
2023/04/13 00:56:36;;;;;;;1.02;1.02;;;10.00;99.90;;;;;;5059077;28;19914;-71
2023/04/13 00:59:16;;;;;;;0.95;0.95;;;10.00;99.90;;;;;;5068361;29;20035;-69
2023/04/13 01:01:55;;;;;;;1.17;1.08;;;10.00;99.90;;;;;;5120359;23;20248;-69
2023/04/13 01:04:32;;;;;;;1.00;1.00;;;10.10;99.90;;;;;;5129679;28;20057;-68
2023/04/13 01:07:15;;;;;;;1.17;1.17;;;10.10;99.90;;;;;;5254892;28;20024;-69
2023/04/13 01:10:17;;;;;;;1.00;1.00;;;10.20;99.90;;;;;;5237019;28;20071;-68
2023/04/13 01:12:58;;;;;;;1.05;1.05;;;10.20;99.90;;;;;;5234487;28;20029;-68
2023/04/13 01:15:36;;;;;;;1.23;1.10;;;10.10;99.90;;;;;;5233737;28;20036;-69
2023/04/13 01:18:15;;;;;;;0.80;0.80;;;10.20;99.90;;;;;;5254685;28;20045;-66
2023/04/13 01:20:51;;;;;;;1.13;0.88;;;10.20;1.00;;;;;;5220039;28;20024;-71
2023/04/13 01:24:01;;;;;;;1.25;1.15;;;10.20;1.00;;;;;;5236274;28;20028;-70
2023/04/13 01:26:57;;;;;;;4.97;1.20;;;10.20;99.90;;;;;;5239553;28;20048;-66
2023/04/13 01:29:29;;;;;;;0.95;0.95;;;10.10;1.00;;;;;;5247039;28;20574;-70
2023/04/13 01:32:01;;;;;;;0.93;0.93;;;10.10;1.90;;;;;;5209252;28;20032;-72
2023/04/13 01:34:36;;;;;;;0.90;0.90;;;10.00;1.00;;;;;;5219575;28;20046;-71
2023/04/13 01:37:11;;;;;;;0.70;0.70;;;9.90;9.70;;;;;;5224797;28;20039;-67
2023/04/13 01:39:45;;;;;;;0.93;0.93;;;9.80;1.00;;;;;;5219884;28;20036;-74
2023/04/13 01:42:16;;;;;;;1.00;1.00;;;9.70;50.10;;;;;;5219639;28;20032;-68
2023/04/13 01:44:50;;;;;;;1.02;0.93;;;9.60;25.90;;;;;;5254862;28;20058;-70
2023/04/13 01:47:24;;;;;;;1.00;1.00;;;9.50;43.40;;;;;;5236582;28;20473;-72
2023/04/13 01:50:07;;;;;;;0.80;0.80;;;9.50;67.50;;;;;;5237910;28;20032;-70
2023/04/13 01:52:44;;;;;;;0.80;0.80;;;9.60;99.90;;;;;;5214452;28;20032;-72
2023/04/13 01:55:18;;;;;;;0.52;0.52;;;9.60;99.90;;;;;;5195385;28;20147;-76
2023/04/13 01:57:54;;;;;;;0.68;0.68;;;9.60;99.90;;;;;;5208842;28;20041;-74
2023/04/13 02:00:34;;;;;;;0.80;0.80;;;9.60;99.90;;;;;;5202456;28;20025;-73
2023/04/13 02:03:09;;;;;;;0.85;0.80;;;9.60;99.90;;;;;;5197274;28;20460;-74
2023/04/13 02:05:42;;;;;;;0.65;0.65;;;9.50;99.90;;;;;;5202615;28;20059;-72
2023/04/13 02:08:17;;;;;;;0.77;0.77;;;9.40;99.90;;;;;;5206736;28;20412;-74
2023/04/13 02:10:49;;;;;;;;;;;9.40;99.90;;;;;;5232329;28;20032;-73
2023/04/13 02:13:24;;;;;;;0.50;0.50;;;9.30;99.90;;;;;;5217881;28;19905;-74
2023/04/13 02:15:58;;;;;;;0.50;0.50;;;9.30;99.90;;;;;;5226631;28;20043;-73
2023/04/13 02:18:30;;;;;;;1.02;1.02;;;9.30;99.90;;;;;;5233019;28;20036;-75
2023/04/13 02:21:08;;;;;;;0.77;0.77;;;9.30;99.90;;;;;;5217518;28;20033;-73
2023/04/13 02:23:43;;;;;;;0.80;0.80;;;9.30;99.90;;;;;;5244244;28;20051;-74
2023/04/13 02:26:21;;;;;;;0.65;0.65;;;9.30;99.90;;;;;;5238296;28;20568;-72
2023/04/13 02:28:55;;;;;;;0.80;0.80;;;9.50;99.90;;;;;;5256384;28;20043;-73
2023/04/13 02:31:32;;;;;;;1.02;1.02;;;9.60;99.90;;;;;;5232964;28;20039;-74
2023/04/13 02:34:04;;;;;;;0.93;0.90;;;9.70;99.90;;;;;;5239259;28;20038;-74
2023/04/13 02:36:36;;;;;;;0.60;0.60;;;9.80;99.90;;;;;;5227002;28;20082;-76
2023/04/13 02:39:07;;;;;;;0.70;0.70;;;9.80;99.90;;;;;;5254977;28;20571;-74
2023/04/13 02:41:41;;;;;;;3.53;0.98;;;9.90;99.90;;;;;;5215207;28;20036;-74
2023/04/13 02:44:15;;;;;;;0.57;0.57;;;9.90;99.90;;;;;;5238157;28;20028;-72
2023/04/13 02:46:49;;;;;;;0.93;0.93;;;9.90;99.90;;;;;;5217516;28;20036;-73
2023/04/13 02:49:20;;;;;;;1.08;1.08;;;9.90;99.90;;;;;;5212611;28;20309;-72
2023/04/13 02:51:53;;;;;;;1.00;1.00;;;9.90;99.90;;;;;;5235578;28;20199;-72
2023/04/13 02:54:28;;;;;;;0.90;0.90;;;10.00;99.90;;;;;;5257605;28;20019;-72
2023/04/13 02:57:00;;;;;;;1.23;1.13;;;10.00;99.90;;;;;;5239338;28;20055;-73
2023/04/13 02:59:32;;;;;;;0.93;0.88;;;10.00;99.90;;;;;;5206146;28;20032;-71
2023/04/13 03:02:06;;;;;;;1.30;1.00;;;9.90;99.90;;;;;;5236420;28;20040;-71
2023/04/13 03:04:39;;;;;;;0.88;0.88;;;9.90;99.90;;;;;;5205451;28;20052;-74
2023/04/13 03:07:13;;;;;;;0.90;0.90;;;9.90;99.90;;;;;;5193028;28;20038;-73
2023/04/13 03:09:46;;;;;;;1.15;1.15;;;9.90;99.90;;;;;;5223885;28;20377;-72
2023/04/13 03:12:18;;;;;;;1.38;1.33;;;9.90;99.90;;;;;;5219175;28;20047;-73
2023/04/13 03:14:50;;;;;;;1.10;1.00;;;9.90;99.90;;;;;;5237251;28;20507;-73
2023/04/13 03:17:24;;;;;;;1.55;1.42;;;9.90;99.90;;;;;;5200968;28;20036;-71
2023/04/13 03:19:56;;;;;;;1.83;1.55;;;9.90;99.90;;;;;;5224094;28;20330;-72
2023/04/13 03:22:29;;;;;;;0.90;0.90;;;9.80;99.90;;;;;;5236482;28;20444;-72
2023/04/13 03:25:02;;;;;;;1.20;1.20;;;9.80;99.90;;;;;;5257319;28;20018;-72
2023/04/13 03:27:35;;;;;;;1.13;1.10;;;9.70;99.90;;;;;;5214133;28;20069;-72
2023/04/13 03:30:07;;;;;;;2.30;1.40;;;9.70;99.90;;;;;;5238158;28;20261;-76
2023/04/13 03:32:51;;;;;;;2.78;1.88;;;9.60;99.90;;;;;;5238841;28;20340;-74
2023/04/13 03:35:24;;;;;;;0.98;0.98;;;9.60;99.90;;;;;;5241853;28;20394;-70
2023/04/13 03:37:56;;;;;;;1.10;1.10;;;9.50;99.90;;;;;;5256186;28;20039;-74
2023/04/13 03:40:27;;;;;;;1.95;1.30;;;9.60;99.90;;;;;;5223128;28;20054;-73
2023/04/13 03:42:58;;;;;;;1.08;1.00;;;9.50;99.90;;;;;;5218606;28;20036;-74
2023/04/13 03:45:29;;;;;;;0.85;0.85;;;9.50;99.90;;;;;;5200819;28;20028;-75
2023/04/13 03:48:04;;;;;;;1.25;1.25;;;9.50;99.90;;;;;;5196227;28;20344;-73
2023/04/13 03:50:35;;;;;;;0.70;0.70;;;9.50;99.90;;;;;;5239189;28;20337;-72
2023/04/13 03:53:07;;;;;;;0.70;0.70;;;9.40;99.90;;;;;;5233378;28;20032;-73
2023/04/13 03:55:41;;;;;;;0.50;0.50;;;9.40;99.90;;;;;;5217625;28;20045;-74
2023/04/13 03:58:14;;;;;;;0.63;0.63;;;9.40;99.90;;;;;;5222033;28;20382;-73
2023/04/13 04:00:45;;;;;;;1.03;1.03;;;9.30;99.90;;;;;;5237390;28;20034;-75
2023/04/13 04:03:21;;;;;;;1.25;1.17;;;9.30;99.90;;;;;;5237042;28;20044;-74
2023/04/13 04:05:56;;;;;;;2.55;0.73;;;9.30;99.90;;;;;;5192615;28;20041;-73
2023/04/13 04:08:33;;;;;;;0.50;0.50;;;9.30;99.90;;;;;;5235753;28;20034;-75
2023/04/13 04:11:08;;;;;;;1.75;0.70;;;9.30;99.90;;;;;;5231245;28;20078;-74
2023/04/13 04:13:44;;;;;;;0.70;0.70;;;9.20;99.90;;;;;;5222109;28;20039;-74
2023/04/13 04:16:15;;;;;;;0.60;0.60;;;9.20;99.90;;;;;;5254413;28;20047;-73
2023/04/13 04:18:48;;;;;;;0.77;0.77;;;9.20;99.90;;;;;;5255475;28;20071;-72
2023/04/13 04:21:22;;;;;;;0.80;0.80;;;9.20;99.90;;;;;;5238369;28;20479;-74
2023/04/13 04:23:56;;;;;;;0.90;0.90;;;9.20;99.90;;;;;;5253601;28;20030;-74
2023/04/13 04:26:28;;;;;;;1.10;1.10;;;9.20;99.90;;;;;;5219529;28;20032;-71
2023/04/13 04:29:02;;;;;;;0.50;0.50;;;9.10;99.90;;;;;;5237473;28;20024;-74
2023/04/13 04:31:34;;;;;;;0.80;0.80;;;9.10;99.90;;;;;;5249258;28;20433;-74
2023/04/13 04:34:05;;;;;;;0.68;0.68;;;9.20;99.90;;;;;;5248195;28;20028;-73
2023/04/13 04:36:40;;;;;;;0.43;0.43;;;9.10;99.90;;;;;;5202498;28;20039;-73
2023/04/13 04:39:13;;;;;;;0.80;0.80;;;9.10;99.90;;;;;;5222831;28;20032;-73
2023/04/13 04:41:44;;;;;;;0.50;0.50;;;9.10;99.90;;;;;;5208963;28;20040;-72
2023/04/13 04:44:15;;;;;;;0.68;0.68;;;9.10;99.90;;;;;;5242743;28;20044;-72
2023/04/13 04:46:47;;;;;;;0.88;0.88;;;9.10;99.90;;;;;;5231285;28;20024;-72
2023/04/13 04:49:21;;;;;;;0.40;0.40;;;9.10;99.90;;;;;;5234300;28;20312;-72
2023/04/13 04:51:54;;;;;;;0.95;0.95;;;9.10;99.90;;;;;;5202804;28;20045;-72
2023/04/13 04:54:25;;;;;;;0.47;0.47;;;9.00;99.90;;;;;;5231685;28;20021;-71
2023/04/13 04:57:00;;;;;;;0.52;0.52;;;9.00;99.90;;;;;;5229015;28;20035;-71
2023/04/13 04:59:32;;;;;;;2.05;0.68;;;9.00;99.90;;;;;;5225544;28;20039;-72
2023/04/13 05:02:03;;;;;;;0.80;0.80;;;9.00;99.90;;;;;;5229821;28;20044;-73
2023/04/13 05:04:34;;;;;;;1.00;1.00;;;9.00;99.90;;;;;;5239267;28;20059;-71
2023/04/13 05:07:06;;;;;;;0.90;0.90;;;9.00;99.90;;;;;;5224070;28;20046;-71
2023/04/13 05:09:37;;;;;;;0.52;0.52;;;9.00;99.90;;;;;;5238300;28;20097;-71
2023/04/13 05:12:10;;;;;;;0.88;0.88;;;9.00;99.90;;;;;;5237392;28;20121;-73
2023/04/13 05:14:47;;;;;;;0.80;0.80;;;9.00;99.90;;;;;;5254120;28;20030;-72
2023/04/13 05:17:24;;;;;;;0.82;0.82;;;9.00;99.90;;;;;;5233775;28;20047;-73
2023/04/13 05:19:55;;;;;;;0.75;0.75;;;9.00;99.90;;;;;;5235380;28;20039;-72
2023/04/13 05:22:31;;;;;;;0.70;0.70;;;9.00;99.90;;;;;;5219819;28;20044;-72
2023/04/13 05:25:02;;;;;;;0.60;0.60;;;9.00;99.90;;;;;;5255766;28;20030;-73
2023/04/13 05:27:36;;;;;;;1.50;1.40;;;9.00;99.90;;;;;;5203497;28;20051;-72
2023/04/13 05:30:10;;;;;;;0.98;0.98;;;8.90;99.90;;;;;;5215601;28;20051;-73
2023/04/13 05:32:42;;;;;;;0.50;0.50;;;8.90;99.90;;;;;;5248929;28;20028;-72
2023/04/13 05:35:13;;;;;;;0.85;0.85;;;8.80;99.90;;;;;;5250880;28;20494;-72
2023/04/13 05:37:45;;;;;;;0.85;0.85;;;8.80;99.90;;;;;;5257965;28;20032;-72
2023/04/13 05:40:19;;;;;;;0.73;0.73;;;8.80;99.90;;;;;;5239840;28;20030;-72
2023/04/13 05:42:50;;;;;;;0.93;0.93;;;8.80;99.90;;;;;;5220317;28;20050;-72
2023/04/13 05:45:27;;;;;;;1.25;0.90;;;8.80;99.90;;;;;;5236947;28;20020;-72
2023/04/13 05:47:59;;;;;;;0.52;0.52;;;8.80;99.90;;;;;;5220626;28;20032;-72
2023/04/13 05:50:33;;;;;;;0.90;0.90;;;8.80;99.90;;;;;;5202675;28;20024;-72
2023/04/13 05:53:07;;;;;;;0.82;0.82;;;8.70;99.90;;;;;;5259150;28;20024;-72
2023/04/13 05:55:43;;;;;;;0.82;0.82;;;8.70;99.90;;;;;;5258270;28;20032;-71
2023/04/13 05:58:17;;;;;;;0.70;0.70;;;8.70;99.90;;;;;;5256433;28;20334;-72
2023/04/13 06:00:53;;;;;;;0.55;0.55;;;8.70;99.90;;;;;;5231269;28;20488;-73
2023/04/13 06:03:28;;;;;;;0.60;0.60;;;8.70;99.90;;;;;;5217011;28;20040;-72
2023/04/13 06:06:03;;;;;;;0.60;0.60;;;8.70;99.90;;;;;;5213939;28;20374;-74
2023/04/13 06:08:34;;;;;;;0.43;0.43;;;8.70;99.90;;;;;;5238562;28;20051;-72
2023/04/13 06:11:08;;;;;;;0.70;0.70;;;8.70;99.90;;;;;;5234719;28;20040;-72
2023/04/13 06:13:40;;;;;;;0.88;0.88;;;8.60;99.90;;;;;;5232602;28;20040;-72
2023/04/13 06:16:12;;;;;;;0.60;0.60;;;8.60;99.90;;;;;;5229278;28;20184;-73
2023/04/13 06:18:43;;;;;;;0.65;0.65;;;8.50;99.90;;;;;;5245158;28;20039;-72
2023/04/13 06:21:14;;;;;;;0.80;0.80;;;8.50;99.90;;;;;;5235201;28;20468;-71
2023/04/13 06:23:49;;;;;;;0.57;0.57;;;8.50;99.90;;;;;;5220891;28;20025;-72
2023/04/13 06:26:25;;;;;;;0.80;0.80;;;8.50;99.90;;;;;;5196946;28;20040;-72
2023/04/13 06:28:57;;;;;;;0.68;0.68;;;8.40;99.90;;;;;;5186203;28;20036;-72
2023/04/13 06:31:31;;;;;;;0.68;0.68;;;8.40;99.90;;;;;;5195446;28;20666;-72
2023/04/13 06:34:02;;;;;;;0.70;0.70;;;8.40;99.90;;;;;;5221646;28;20024;-73
2023/04/13 06:36:34;;;;;;;0.70;0.70;;;8.40;99.90;;;;;;5168838;28;20193;-71
2023/04/13 06:39:07;;;;;;;0.80;0.80;;;8.40;99.90;;;;;;5200274;28;20279;-72
2023/04/13 06:41:38;;;;;;;0.63;0.63;;;8.40;99.90;;;;;;5215250;28;20037;-71
2023/04/13 06:44:09;;;;;;;0.77;0.77;;;8.40;99.90;;;;;;5251469;28;20251;-72
2023/04/13 06:46:40;;;;;;;0.70;0.70;;;8.40;99.90;;;;;;5259025;28;20300;-72
2023/04/13 06:49:14;;;;;;;0.73;0.73;;;8.40;99.90;;;;;;5233638;28;20245;-71
2023/04/13 06:51:45;;;;;;;1.00;1.00;;;8.40;99.90;;;;;;5224873;28;20028;-72
2023/04/13 06:54:16;;;;;;;0.60;0.60;;;8.40;99.90;;;;;;5240151;28;20445;-71
2023/04/13 06:56:47;;;;;;;0.55;0.55;;;8.40;99.90;;;;;;5243213;28;20214;-72
2023/04/13 06:59:19;;;;;;;1.05;1.05;;;8.40;99.90;;;;;;5255596;28;20031;-72
2023/04/13 07:01:51;;;;;;;0.65;0.65;;;8.40;99.90;;;;;;5244630;28;20445;-73
2023/04/13 07:04:22;;;;;;;0.73;0.73;;;8.40;99.90;;;;;;5222505;28;20339;-73
2023/04/13 07:06:53;;;;;;;0.93;0.93;;;8.40;99.90;;;;;;5225411;28;20042;-74
2023/04/13 07:09:26;;;;;;;0.50;0.50;;;8.40;99.90;;;;;;5256545;28;20043;-75
2023/04/13 07:12:04;;;;;;;0.95;0.88;;;8.40;99.90;;;;;;5267265;28;20016;-74
2023/04/13 07:14:41;;;;;;;0.80;0.80;;;8.40;99.90;;;;;;5233059;28;20035;-74
2023/04/13 07:17:13;;;;;;;0.63;0.63;;;8.40;99.90;;;;;;5236101;28;20284;-73
2023/04/13 07:19:48;;;;;;;0.60;0.60;;;8.50;99.90;;;;;;5243967;28;20090;-73
2023/04/13 07:22:22;;;;;;;0.40;0.40;;;8.50;99.90;;;;;;5271800;28;20031;-73
2023/04/13 07:24:58;;;;;;;0.90;0.90;;;8.60;99.90;;;;;;5273592;28;20035;-73
2023/04/13 07:27:29;;;;;;;0.50;0.50;;;8.50;99.90;;;;;;5271724;28;20134;-75
2023/04/13 07:30:00;;;;;;;0.63;0.63;;;8.70;99.90;;;;;;5246946;28;20042;-72
2023/04/13 07:32:31;;;;;;;0.52;0.52;;;8.80;99.90;;;;;;5249747;28;20027;-74
2023/04/13 07:35:06;;;;;;;0.60;0.60;;;8.90;99.90;;;;;;5269458;28;20029;-73
2023/04/13 07:37:43;;;;;;;0.60;0.60;;;8.90;99.90;;;;;;5223112;28;20112;-72
2023/04/13 07:40:15;;;;;;;0.70;0.70;;;8.70;99.90;;;;;;5241157;28;20026;-72
2023/04/13 07:42:51;;;;;;;0.70;0.70;;;8.60;99.90;;;;;;5251418;28;20032;-73
2023/04/13 07:45:22;;;;;;;0.70;0.70;;;8.60;99.90;;;;;;5236344;28;20028;-73
2023/04/13 07:47:53;;;;;;;0.70;0.70;;;8.70;99.90;;;;;;5271169;28;20035;-72
2023/04/13 07:50:27;;;;;;;0.90;0.90;;;8.90;99.90;;;;;;5249762;28;20132;-74
2023/04/13 07:52:58;;;;;;;0.80;0.80;;;8.90;99.90;;;;;;5265235;28;20027;-72
2023/04/13 07:55:42;;;;;;;0.70;0.70;;;9.00;99.90;;;;;;5270113;28;20029;-73
2023/04/13 07:58:22;;;;;;;0.77;0.77;;;9.00;99.90;;;;;;5265191;28;20020;-72
2023/04/13 08:01:00;;;;;;;0.65;0.65;;;9.10;99.90;;;;;;5239244;28;20414;-73
2023/04/13 08:03:49;;;;;;;0.70;0.70;;;9.10;99.90;;;;;;5242337;28;20034;-71
2023/04/13 08:06:57;;;;;;;1.63;1.52;;;9.00;99.90;;;;;;5236487;28;20044;-73
2023/04/13 08:10:07;;;;;;;0.50;0.50;;;9.00;99.90;;;;;;5257564;28;20024;-72
2023/04/13 08:12:38;;;;;;;0.80;0.80;;;8.90;99.90;;;;;;5236534;28;20047;-73
2023/04/13 08:15:11;;;;;;;0.70;0.70;;;8.80;99.90;;;;;;5223334;28;20512;-73
2023/04/13 08:17:44;;;;;;;0.50;0.50;;;8.70;99.90;;;;;;5237901;28;20048;-74
2023/04/13 08:20:17;;;;;;;0.70;0.70;;;8.60;99.90;;;;;;5226389;28;20047;-72
2023/04/13 08:22:51;;;;;;;0.68;0.68;;;8.60;99.90;;;;;;5238465;28;20038;-72
2023/04/13 08:25:24;;;;;;;0.73;0.73;;;8.70;99.90;;;;;;5220937;28;20485;-72
2023/04/13 08:27:55;;;;;;;0.50;0.50;;;8.70;99.90;;;;;;5216762;28;20047;-72
2023/04/13 08:30:27;;;;;;;0.50;0.50;;;8.70;99.90;;;;;;5230250;28;20718;-72
2023/04/13 08:33:06;;;;;;;0.95;0.95;;;8.80;99.90;;;;;;5216958;28;20449;-71
2023/04/13 08:35:38;;;;;;;0.55;0.55;;;8.80;99.90;;;;;;5236499;28;20031;-72
2023/04/13 08:38:13;;;;;;;0.70;0.70;;;8.90;99.90;;;;;;5239172;28;20046;-73
2023/04/13 08:40:46;;;;;;;0.90;0.90;;;9.20;99.90;;;;;;5222808;28;20046;-72
2023/04/13 08:43:21;;;;;;;0.70;0.70;;;9.20;99.90;;;;;;5239200;28;20062;-73
2023/04/13 08:45:53;;;;;;;0.75;0.75;;;9.40;99.90;;;;;;5235563;28;20038;-73
2023/04/13 08:48:24;;;;;;;0.57;0.57;;;9.60;99.90;;;;;;5234878;28;20348;-73
2023/04/13 08:50:57;;;;;;;0.70;0.70;;;9.80;99.90;;;;;;5237630;28;20035;-70
2023/04/13 08:53:28;;;;;;;0.70;0.70;;;9.90;99.90;;;;;;5237607;28;20074;-72
2023/04/13 08:56:03;;;;;;;0.85;0.85;;;10.10;99.90;;;;;;5232635;28;20432;-74
2023/04/13 08:58:46;;;;;;;0.70;0.70;;;9.80;99.90;;;;;;5233647;28;20040;-71
2023/04/13 09:01:51;;;;;;;0.60;0.60;;;9.60;99.90;;;;;;5233389;28;20021;-73
2023/04/13 09:04:29;;;;;;;0.90;0.90;;;9.80;99.90;;;;;;5224892;28;20030;-72
2023/04/13 09:07:05;;;;;;;8.55;1.65;;;10.00;99.90;;;;;;5242384;28;20032;-73
2023/04/13 09:09:37;;;;;;;1.60;1.48;;;9.90;99.90;;;;;;5244669;28;20195;-72
2023/04/13 09:12:08;;;;;;;0.60;0.60;;;9.80;99.90;;;;;;5235036;28;20032;-71
2023/04/13 09:14:40;;;;;;;0.80;0.80;;;9.60;99.90;;;;;;5255000;28;20434;-72
2023/04/13 09:17:27;;;;;;;0.65;0.65;;;9.50;99.90;;;;;;5252035;28;20027;-72
2023/04/13 09:20:20;;;;;;;0.90;0.90;;;9.50;99.90;;;;;;5238115;28;20023;-72
2023/04/13 09:22:54;;;;;;;0.80;0.80;;;9.60;99.90;;;;;;5256441;28;20024;-70
2023/04/13 09:25:27;;;;;;;0.68;0.68;;;9.30;99.90;;;;;;5256009;28;20020;-70
2023/04/13 09:27:59;;;;;;;0.60;0.60;;;9.30;99.90;;;;;;5221665;28;20042;-72
2023/04/13 09:30:31;;;;;;;0.70;0.70;;;9.30;99.90;;;;;;5218349;28;20032;-71
2023/04/13 09:33:06;;;;;;;0.50;0.50;;;9.50;99.90;;;;;;5237060;28;20020;-73
2023/04/13 09:35:38;;;;;;;0.88;0.88;;;9.40;99.90;;;;;;5222004;28;20058;-71
2023/04/13 09:38:14;;;;;;;1.05;1.05;;;9.50;99.90;;;;;;5258574;28;20232;-70
2023/04/13 09:40:50;;;;;;;0.70;0.70;;;9.70;99.90;;;;;;5240863;28;20026;-72
2023/04/13 09:43:36;;;;;;;1.00;1.00;;;9.70;99.90;;;;;;5238814;28;20046;-74
2023/04/13 09:46:12;;;;;;;0.50;0.50;;;9.90;99.90;;;;;;5253102;28;20040;-72
2023/04/13 09:48:46;;;;;;;0.77;0.77;;;10.00;99.90;;;;;;5221725;28;20046;-75
2023/04/13 09:51:19;;;;;;;0.82;0.82;;;10.00;99.90;;;;;;5264406;28;20166;-74
2023/04/13 09:53:50;;;;;;;0.52;0.52;;;10.30;99.90;;;;;;5265907;28;20034;-74
2023/04/13 09:56:26;;;;;;;0.77;0.77;;;10.30;99.90;;;;;;5259204;28;20054;-72
2023/04/13 09:59:02;;;;;;;0.85;0.85;;;10.40;99.90;;;;;;5255267;28;20028;-72
2023/04/13 10:01:33;;;;;;;0.90;0.90;;;10.40;99.90;;;;;;5227841;28;20233;-72
2023/04/13 10:04:09;;;;;;;0.70;0.70;;;10.50;99.90;;;;;;5246977;28;20028;-72
2023/04/13 10:06:45;;;;;;;0.57;0.57;;;10.50;99.90;;;;;;5210269;28;20602;-73
2023/04/13 10:09:20;;;;;;;0.80;0.80;;;10.40;99.90;;;;;;5218470;28;20508;-70
2023/04/13 10:11:54;;;;;;;;;;;10.40;99.90;;;;;;5214535;28;20249;-73
2023/04/13 10:14:33;;;;;;;0.82;0.82;;;10.40;99.90;;;;;;5256874;28;20216;-72
2023/04/13 10:17:29;;;;;;;0.60;0.60;;;10.30;99.90;;;;;;5235419;28;20028;-72
2023/04/13 10:20:10;;;;;;;0.75;0.75;;;10.30;99.90;;;;;;5240922;28;20036;-70
2023/04/13 10:22:44;;;;;;;1.17;1.08;;;10.60;99.90;;;;;;5226468;28;20032;-73
2023/04/13 10:25:15;;;;;;;;;;;10.50;99.90;;;;;;5219189;28;20043;-71
2023/04/13 10:27:56;;;;;;;0.82;0.70;;;10.30;99.90;;;;;;5240562;28;20055;-71
2023/04/13 10:30:30;;;;;;;0.60;0.60;;;10.50;99.90;;;;;;5219964;28;20035;-73
2023/04/13 10:33:08;;;;;;;0.88;0.88;;;10.50;99.90;;;;;;5224926;28;20027;-72
2023/04/13 10:35:39;;;;;;;0.80;0.80;;;10.70;99.90;;;;;;5223208;28;20046;-72
2023/04/13 10:38:10;;;;;;;0.80;0.80;;;10.60;99.90;;;;;;5253926;28;20028;-71
2023/04/13 10:40:46;;;;;;;0.45;0.45;;;11.00;99.90;;;;;;5230468;28;20028;-71
2023/04/13 10:43:31;;;;;;;0.80;0.80;;;11.20;99.90;;;;;;5234702;28;20043;-71
2023/04/13 10:46:12;;;;;;;0.60;0.60;;;11.40;99.90;;;;;;5232454;28;20034;-75
2023/04/13 10:48:53;;;;;;;2.13;0.77;;;11.30;99.90;;;;;;5248969;28;20530;-72
2023/04/13 10:51:46;;;;;;;1.08;0.60;;;10.80;99.90;;;;;;5242465;28;20031;-71
2023/04/13 10:54:17;;;;;;;0.70;0.70;;;10.70;99.90;;;;;;5222284;28;20067;-72
2023/04/13 10:57:02;;;;;;;0.70;0.70;;;10.70;99.90;;;;;;5227239;28;20036;-71
2023/04/13 10:59:48;;;;;;;0.80;0.80;;;10.60;99.90;;;;;;5241371;28;20044;-71
2023/04/13 11:02:19;;;;;;;0.90;0.90;;;10.80;99.90;;;;;;5248120;28;20040;-69
2023/04/13 11:04:55;;;;;;;0.80;0.80;;;10.90;99.90;;;;;;5219629;28;20051;-71
2023/04/13 11:07:27;;;;;;;0.80;0.80;;;11.30;99.90;;;;;;5136267;28;20027;-69
2023/04/13 11:10:01;;;;;;;0.70;0.70;;;11.30;99.90;;;;;;5102899;28;20049;-69
2023/04/13 11:12:32;;;;;;;0.77;0.77;;;11.20;99.90;;;;;;5145288;28;20018;-71
2023/04/13 11:15:04;;;;;;;0.80;0.80;;;10.70;99.90;;;;;;5123634;28;20441;-70
2023/04/13 11:17:35;;;;;;;1.02;1.02;;;10.60;99.90;;;;;;5116446;28;20227;-69
2023/04/13 11:20:09;;;;;;;0.60;0.60;;;10.80;99.90;;;;;;5117274;28;20045;-70
2023/04/13 11:22:41;;;;;;;0.70;0.70;;;10.80;99.90;;;;;;5116330;28;20027;-70
2023/04/13 11:25:15;;;;;;;0.85;0.85;;;10.80;99.90;;;;;;5116264;28;20049;-69
2023/04/13 11:27:54;;;;;;;0.50;0.50;;;10.60;99.90;;;;;;5116981;28;20038;-72
2023/04/13 11:30:33;;;;;;;0.55;0.55;;;10.30;99.90;;;;;;5151256;28;20025;-71
2023/04/13 11:33:08;;;;;;;0.68;0.68;;;9.90;99.90;;;;;;5154787;28;20028;-70
2023/04/13 11:35:44;;;;;;;0.50;0.50;;;9.50;99.90;;;;;;5208852;28;20026;-70
2023/04/13 11:38:17;;;;;;;0.65;0.65;;;9.40;99.90;;;;;;5127474;28;20042;-72
2023/04/13 11:40:50;;;;;;;0.63;0.63;;;9.30;99.90;;;;;;5160882;28;20023;-71
2023/04/13 11:43:26;;;;;;;0.90;0.90;;;9.50;99.90;;;;;;5139521;28;20046;-72
2023/04/13 11:45:58;;;;;;;0.70;0.70;;;9.50;99.90;;;;;;5115088;28;20052;-72
2023/04/13 11:48:30;;;;;;;0.80;0.80;;;9.60;99.90;;;;;;5118075;28;20034;-70
2023/04/13 11:51:01;;;;;;;0.60;0.60;;;9.80;99.90;;;;;;5113943;28;20206;-73
2023/04/13 11:53:35;;;;;;;0.50;0.50;;;10.10;99.90;;;;;;5145099;28;20030;-72
2023/04/13 11:56:07;;;;;;;0.52;0.52;;;10.00;99.90;;;;;;5121354;28;20032;-71
2023/04/13 11:58:39;;;;;;;0.63;0.63;;;9.90;99.90;;;;;;5149112;28;20046;-69
2023/04/13 12:01:13;;;;;;;1.20;0.80;;;9.90;99.90;;;;;;5100025;28;20274;-71
2023/04/13 12:03:47;;;;;;;;;;;9.80;99.90;;;;;;5201028;28;20044;-70
2023/04/13 12:06:18;;;;;;;0.80;0.80;;;9.70;99.90;;;;;;5141302;28;19918;-73
2023/04/13 12:09:01;;;;;;;0.60;0.60;;;9.50;99.90;;;;;;5151093;28;20037;-75
2023/04/13 12:11:40;;;;;;;0.68;0.68;;;9.40;99.90;;;;;;5132771;28;20031;-72
2023/04/13 12:14:24;;;;;;;0.52;0.52;;;9.60;99.90;;;;;;5126549;28;20026;-73
2023/04/13 12:16:56;;;;;;;0.50;0.50;;;9.40;99.90;;;;;;5130160;28;20035;-73
2023/04/13 12:19:33;;;;;;;0.52;0.52;;;9.30;99.90;;;;;;5133629;28;20034;-74
2023/04/13 12:22:07;;;;;;;0.60;0.60;;;9.40;99.90;;;;;;5133647;28;20042;-74
2023/04/13 12:24:39;;;;;;;0.90;0.90;;;9.00;99.90;;;;;;5143450;28;20041;-72
2023/04/13 12:27:10;;;;;;;1.08;1.08;;;8.80;99.90;;;;;;5148660;28;20026;-72
2023/04/13 12:29:45;;;;;;;0.80;0.80;;;8.80;99.90;;;;;;5117213;28;20049;-74
2023/04/13 12:32:18;;;;;;;;;;;8.70;99.90;;;;;;5127285;28;20037;-75
2023/04/13 12:34:51;;;;;;;0.60;0.60;;;8.80;99.90;;;;;;5148279;28;19913;-74
2023/04/13 12:37:22;;;;;;;0.40;0.40;;;8.90;99.90;;;;;;5148486;28;20032;-73
2023/04/13 12:39:54;;;;;;;0.47;0.47;;;8.70;99.90;;;;;;5123083;28;20108;-73
2023/04/13 12:42:27;;;;;;;0.50;0.50;;;8.60;99.90;;;;;;5132609;28;20038;-76
2023/04/13 12:44:59;;;;;;;0.70;0.70;;;8.50;99.90;;;;;;5203450;28;20079;-75
2023/04/13 12:47:30;;;;;;;0.60;0.60;;;8.70;99.90;;;;;;5128302;28;20038;-74
2023/04/13 12:50:05;;;;;;;0.60;0.60;;;8.70;99.90;;;;;;5148633;28;20038;-73
2023/04/13 12:52:39;;;;;;;0.60;0.60;;;8.70;99.90;;;;;;5134263;28;20236;-72
2023/04/13 12:55:11;;;;;;;1.75;1.60;;;8.70;99.90;;;;;;5133653;28;20034;-76
2023/04/13 12:57:43;;;;;;;0.63;0.63;;;8.90;99.90;;;;;;5157735;28;20024;-76
2023/04/13 13:00:16;;;;;;;0.77;0.77;;;9.00;99.90;;;;;;5197098;28;20050;-74
2023/04/13 13:02:47;;;;;;;0.70;0.70;;;9.00;99.90;;;;;;5153123;28;20042;-74
2023/04/13 13:05:19;;;;;;;0.63;0.63;;;9.10;99.90;;;;;;5097314;28;20215;-73
2023/04/13 13:07:50;;;;;;;0.70;0.70;;;9.00;99.90;;;;;;5113083;28;20058;-73
2023/04/13 13:10:22;;;;;;;0.40;0.40;;;9.10;99.90;;;;;;5113831;28;20039;-74
2023/04/13 13:12:54;;;;;;;0.88;0.70;;;9.10;99.90;;;;;;5128873;28;20037;-73
2023/04/13 13:15:25;;;;;;;0.77;0.77;;;9.10;99.90;;;;;;5121650;28;20025;-73
2023/04/13 13:17:59;;;;;;;3.08;1.02;;;9.30;99.90;;;;;;5118627;28;20488;-73
2023/04/13 13:20:30;;;;;;;0.70;0.70;;;9.40;99.90;;;;;;5126859;28;20592;-72
2023/04/13 13:23:02;;;;;;;1.00;1.00;;;9.80;99.90;;;;;;5099680;28;20026;-73
2023/04/13 13:25:35;;;;;;;0.80;0.80;;;10.10;99.90;;;;;;5112229;28;20049;-74
2023/04/13 13:28:12;;;;;;;0.68;0.68;;;10.60;99.90;;;;;;5106677;28;20041;-73
2023/04/13 13:30:45;;;;;;;0.80;0.80;;;10.40;99.90;;;;;;5119859;28;20034;-74
2023/04/13 13:33:19;;;;;;;1.00;1.00;;;10.00;99.90;;;;;;5126507;28;20047;-74
2023/04/13 13:35:53;;;;;;;0.60;0.60;;;9.70;99.90;;;;;;5125354;28;20024;-73